Time;durP1;ratioP1;P1;durP2;ratioP2;P2;SDS_P1;SDS_P2;PMS_P1;PMS_P2;Temp;Humidity;BMP_temperature;BMP_pressure;BME280_temperature;BME280_humidity;BME280_pressure;Samples;Min_cycle;Max_cycle;Signal;HPM_P1;HPM_P2
2020/12/25 00:00:02;;;;;;;1.03;0.90;;;;;;;3.81;100.00;97857.47;5071341;28;20225;-73
2020/12/25 00:02:28;;;;;;;1.07;0.93;;;;;;;3.90;100.00;97859.94;5071342;28;20193;-74
2020/12/25 00:04:55;;;;;;;1.03;0.70;;;;;;;3.84;100.00;97870.31;5071484;28;20739;-73
2020/12/25 00:07:23;;;;;;;1.10;0.90;;;;;;;3.62;100.00;97869.16;5067743;28;20217;-74
2020/12/25 00:09:50;;;;;;;1.10;0.70;;;;;;;3.66;100.00;97869.63;5071539;28;20204;-74
2020/12/25 00:12:16;;;;;;;0.77;0.60;;;;;;;3.56;100.00;97868.94;5066687;28;20194;-74
2020/12/25 00:14:43;;;;;;;0.80;0.80;;;;;;;4.07;100.00;97871.34;5071095;28;20339;-72
2020/12/25 00:17:10;;;;;;;0.70;0.60;;;;;;;4.36;100.00;97869.06;5068582;28;20224;-74
2020/12/25 00:19:37;;;;;;;0.70;0.70;;;;;;;4.52;100.00;97861.94;5070905;28;20228;-74
2020/12/25 00:22:03;;;;;;;0.70;0.70;;;;;;;4.52;100.00;97867.22;5071397;28;20611;-74
2020/12/25 00:24:31;;;;;;;0.50;0.50;;;;;;;3.97;100.00;97879.41;5068222;28;20218;-74
2020/12/25 00:26:58;;;;;;;0.50;0.50;;;;;;;3.68;100.00;97880.84;5070947;28;20286;-71
2020/12/25 00:29:25;;;;;;;0.50;0.40;;;;;;;3.78;100.00;97874.44;5071580;28;20307;-74
2020/12/25 00:31:51;;;;;;;0.30;0.30;;;;;;;3.66;100.00;97874.91;5068627;28;20258;-72
2020/12/25 00:34:18;;;;;;;0.53;0.53;;;;;;;3.94;100.00;97874.47;5071508;28;20550;-74
2020/12/25 00:36:46;;;;;;;0.40;0.40;;;;;;;3.57;100.00;97875.88;5067735;28;20606;-75
2020/12/25 00:39:15;;;;;;;0.60;0.47;;;;;;;3.69;100.00;97882.50;5066796;28;20201;-73
2020/12/25 00:41:43;;;;;;;0.40;0.40;;;;;;;3.52;100.00;97894.00;5075011;28;20569;-73
2020/12/25 00:44:10;;;;;;;0.37;0.37;;;;;;;3.46;100.00;97879.63;5075049;28;20227;-72
2020/12/25 00:46:37;;;;;;;0.70;0.50;;;;;;;3.45;100.00;97887.72;5075011;28;20225;-72
2020/12/25 00:49:04;;;;;;;0.50;0.50;;;;;;;3.68;100.00;97888.75;5074782;28;20202;-72
2020/12/25 00:51:31;;;;;;;0.77;0.50;;;;;;;3.65;100.00;97881.19;5074812;28;20199;-72
2020/12/25 00:53:58;;;;;;;0.67;0.60;;;;;;;3.77;100.00;97878.06;5073533;28;20228;-72
2020/12/25 00:56:25;;;;;;;0.73;0.70;;;;;;;4.50;100.00;97892.16;5074834;28;20226;-73
2020/12/25 00:58:52;;;;;;;0.63;0.63;;;;;;;4.01;100.00;97890.50;5074965;28;20680;-75
2020/12/25 01:01:19;;;;;;;0.83;0.73;;;;;;;4.15;100.00;97893.31;5073131;28;20235;-74
2020/12/25 01:03:47;;;;;;;0.60;0.60;;;;;;;4.14;100.00;97890.81;5074499;28;20197;-74
2020/12/25 01:06:15;;;;;;;0.60;0.60;;;;;;;4.70;100.00;97894.28;5074739;28;20198;-74
2020/12/25 01:08:42;;;;;;;0.90;0.90;;;;;;;4.12;100.00;97900.72;5074882;28;20568;-74
2020/12/25 01:11:09;;;;;;;1.10;1.00;;;;;;;3.99;100.00;97911.78;5074395;28;20562;-72
2020/12/25 01:13:38;;;;;;;1.03;0.87;;;;;;;3.95;100.00;97917.53;5074797;28;20280;-72
2020/12/25 01:16:07;;;;;;;0.70;0.53;;;;;;;3.98;100.00;97922.50;5073446;28;20223;-74
2020/12/25 01:18:34;;;;;;;1.57;1.20;;;;;;;6.43;100.00;97912.41;5074605;28;20639;-74
2020/12/25 01:21:01;;;;;;;1.33;1.10;;;;;;;6.01;100.00;97909.41;5073429;28;20616;-74
2020/12/25 01:23:28;;;;;;;1.80;1.30;;;;;;;6.67;100.00;97912.22;5074404;28;20213;-74
2020/12/25 01:25:55;;;;;;;1.50;1.20;;;;;;;6.40;100.00;97917.25;5074286;28;20201;-75
2020/12/25 01:28:22;;;;;;;1.63;1.10;;;;;;;5.95;100.00;97922.50;5074460;28;20237;-75
2020/12/25 01:30:48;;;;;;;1.50;1.20;;;;;;;6.22;100.00;97922.84;5073691;28;20658;-76
2020/12/25 01:33:16;;;;;;;1.63;1.13;;;;;;;5.51;100.00;97924.00;5074048;28;20667;-72
2020/12/25 01:35:43;;;;;;;1.50;1.03;;;;;;;5.94;100.00;97934.09;5074223;28;20685;-72
2020/12/25 01:38:11;;;;;;;1.83;1.40;;;;;;;5.01;100.00;97929.59;5074192;28;20218;-74
2020/12/25 01:40:37;;;;;;;1.10;0.90;;;;;;;4.35;100.00;97931.63;5074004;28;20226;-74
2020/12/25 01:43:04;;;;;;;1.40;1.10;;;;;;;4.65;100.00;97938.91;5074144;28;20237;-74
2020/12/25 01:45:31;;;;;;;1.43;1.10;;;;;;;4.37;100.00;97948.13;5073507;28;20199;-75
2020/12/25 01:47:59;;;;;;;1.33;1.00;;;;;;;4.86;100.00;97952.44;5074179;28;20218;-74
2020/12/25 01:50:28;;;;;;;2.20;1.40;;;;;;;4.99;100.00;97938.69;5073038;28;20209;-74
2020/12/25 01:52:56;;;;;;;1.60;1.20;;;;;;;4.92;100.00;97943.03;5073936;28;20228;-74
2020/12/25 01:55:26;;;;;;;2.13;1.53;;;;;;;4.21;100.00;97958.66;5073936;28;20201;-74
2020/12/25 01:57:53;;;;;;;2.33;1.47;;;;;;;4.72;100.00;97963.66;5071426;28;20229;-74
2020/12/25 02:00:21;;;;;;;3.47;2.07;;;;;;;4.50;100.00;97964.31;5073414;28;20230;-72
2020/12/25 02:02:48;;;;;;;3.50;1.80;;;;;;;4.43;100.00;97963.31;5073461;28;20202;-74
2020/12/25 02:05:15;;;;;;;2.37;1.67;;;;;;;4.43;100.00;97971.25;5073795;28;20194;-74
2020/12/25 02:07:43;;;;;;;4.07;2.13;;;;;;;4.20;100.00;97970.22;5073214;28;20698;-74
2020/12/25 02:10:10;;;;;;;4.07;1.83;;;;;;;4.38;100.00;97976.22;5073356;28;20202;-75
2020/12/25 02:12:37;;;;;;;3.97;2.07;;;;;;;4.08;100.00;97968.06;5073116;28;20561;-72
2020/12/25 02:15:04;;;;;;;3.17;2.00;;;;;;;4.13;100.00;97974.50;5072692;28;20205;-73
2020/12/25 02:17:31;;;;;;;2.47;1.90;;;;;;;4.42;100.00;97974.06;5073265;28;20229;-72
2020/12/25 02:20:00;;;;;;;2.97;1.90;;;;;;;4.32;100.00;97979.47;5071575;28;20227;-73
2020/12/25 02:22:28;;;;;;;2.83;1.97;;;;;;;4.22;100.00;97973.53;5073276;28;20202;-73
2020/12/25 02:24:55;;;;;;;3.40;2.33;;;;;;;4.59;100.00;97984.50;5073055;28;20213;-73
2020/12/25 02:27:22;;;;;;;3.53;2.40;;;;;;;5.04;100.00;97992.75;5073248;28;20363;-73
2020/12/25 02:29:49;;;;;;;5.00;2.17;;;;;;;4.51;100.00;97987.13;5073455;28;20248;-73
2020/12/25 02:32:15;;;;;;;3.60;2.27;;;;;;;4.81;100.00;97994.41;5072867;28;20197;-73
2020/12/25 02:34:42;;;;;;;3.70;2.33;;;;;;;4.45;100.00;97995.69;5073053;28;20207;-74
2020/12/25 02:37:09;;;;;;;2.67;1.90;;;;;;;4.11;100.00;97991.50;5073183;28;20221;-73
2020/12/25 02:39:37;;;;;;;3.63;2.10;;;;;;;3.91;100.00;97988.28;5072749;28;20700;-72
2020/12/25 02:42:03;;;;;;;3.53;2.37;;;;;;;4.01;100.00;97986.34;5072058;28;20290;-72
2020/12/25 02:44:30;;;;;;;2.97;2.10;;;;;;;3.99;100.00;97982.22;5072661;28;20658;-73
2020/12/25 02:46:57;;;;;;;3.17;2.30;;;;;;;4.07;100.00;97996.25;5072962;28;20217;-73
2020/12/25 02:49:24;;;;;;;5.13;2.20;;;;;;;3.93;100.00;97994.25;5072968;28;20607;-73
2020/12/25 02:51:51;;;;;;;3.93;1.97;;;;;;;3.88;100.00;98006.28;5072734;28;20201;-74
2020/12/25 02:54:17;;;;;;;3.90;2.30;;;;;;;4.00;100.00;98007.63;5071494;28;20214;-72
2020/12/25 02:56:45;;;;;;;4.27;2.70;;;;;;;4.06;100.00;97999.91;5072604;28;20233;-71
2020/12/25 02:59:12;;;;;;;4.13;2.63;;;;;;;4.06;100.00;98013.09;5068935;28;20194;-74
2020/12/25 03:01:39;;;;;;;3.67;2.50;;;;;;;4.04;100.00;98007.16;5072360;28;20661;-74
2020/12/25 03:04:06;;;;;;;6.03;3.27;;;;;;;3.93;100.00;98001.34;5072482;28;20355;-74
2020/12/25 03:06:32;;;;;;;3.20;2.50;;;;;;;4.04;100.00;98012.44;5065946;28;20217;-74
2020/12/25 03:08:59;;;;;;;3.70;2.47;;;;;;;4.13;100.00;98010.66;5070967;28;20206;-74
2020/12/25 03:11:26;;;;;;;3.43;2.17;;;;;;;4.18;100.00;98016.28;5071549;28;20253;-73
2020/12/25 03:13:54;;;;;;;4.73;2.70;;;;;;;4.06;100.00;98020.22;5072550;28;20235;-74
2020/12/25 03:16:20;;;;;;;7.43;2.70;;;;;;;4.03;100.00;98015.22;5072325;28;20202;-73
2020/12/25 03:18:47;;;;;;;3.80;2.47;;;;;;;3.97;100.00;98026.44;5072349;28;20205;-73
2020/12/25 03:21:14;;;;;;;4.17;2.50;;;;;;;3.99;100.00;98027.09;5072313;28;20213;-73
2020/12/25 03:23:41;;;;;;;4.30;2.67;;;;;;;4.18;100.00;98024.19;5072095;28;20230;-73
2020/12/25 03:26:07;;;;;;;5.13;3.00;;;;;;;4.09;100.00;98025.16;5071770;28;20197;-73
2020/12/25 03:28:34;;;;;;;5.13;3.23;;;;;;;4.10;100.00;98030.28;5072174;28;20209;-73
2020/12/25 03:31:02;;;;;;;4.83;3.03;;;;;;;4.21;100.00;98029.16;5071542;28;20232;-73
2020/12/25 03:33:29;;;;;;;4.20;2.73;;;;;;;4.22;100.00;98034.28;5072098;28;20204;-73
2020/12/25 03:35:55;;;;;;;4.37;2.70;;;;;;;4.04;100.00;98030.09;5071619;28;20236;-73
2020/12/25 03:38:22;;;;;;;4.80;2.97;;;;;;;4.10;100.00;98038.19;5072091;28;20632;-73
2020/12/25 03:40:49;;;;;;;3.47;2.43;;;;;;;4.10;100.00;98030.28;5071103;28;20693;-73
2020/12/25 03:43:16;;;;;;;7.03;3.20;;;;;;;4.00;100.00;98037.50;5069397;28;20209;-73
2020/12/25 03:45:43;;;;;;;5.50;2.50;;;;;;;4.04;100.00;98024.81;5071885;28;20580;-73
2020/12/25 03:48:10;;;;;;;5.97;3.07;;;;;;;4.08;100.00;98026.16;5071211;28;20222;-73
2020/12/25 03:50:37;;;;;;;5.47;3.67;;;;;;;4.07;100.00;98029.78;5069499;28;20206;-73
2020/12/25 03:53:04;;;;;;;4.57;2.77;;;;;;;4.34;100.00;98034.81;5071522;28;20204;-73
2020/12/25 03:55:30;;;;;;;4.20;2.80;;;;;;;4.03;100.00;98033.72;5071748;28;20197;-74
2020/12/25 03:57:57;;;;;;;7.20;2.90;;;;;;;4.20;100.00;98044.19;5071373;28;20221;-73
2020/12/25 04:00:24;;;;;;;4.43;3.03;;;;;;;4.26;100.00;98038.25;5071731;28;20218;-73
2020/12/25 04:02:51;;;;;;;5.93;3.10;;;;;;;4.25;100.00;98044.53;5070517;28;20205;-74
2020/12/25 04:05:18;;;;;;;5.20;3.20;;;;;;;4.30;100.00;98041.38;5071495;28;20530;-73
2020/12/25 04:07:45;;;;;;;8.47;3.67;;;;;;;4.19;100.00;98050.44;5071549;28;20748;-74
2020/12/25 04:10:12;;;;;;;5.20;2.83;;;;;;;4.00;100.00;98053.34;5070993;28;20615;-74
2020/12/25 04:12:39;;;;;;;7.03;3.40;;;;;;;4.11;100.00;98049.59;5071124;28;20255;-74
2020/12/25 04:15:06;;;;;;;6.90;3.33;;;;;;;4.15;100.00;98049.13;5068688;28;20812;-73
2020/12/25 04:17:32;;;;;;;4.53;2.83;;;;;;;4.07;100.00;98057.00;5068644;28;20222;-73
2020/12/25 04:19:59;;;;;;;4.63;3.23;;;;;;;4.10;100.00;98064.59;5069777;28;20226;-74
2020/12/25 04:22:27;;;;;;;6.50;3.37;;;;;;;4.26;100.00;98062.03;5064777;28;20614;-73
2020/12/25 04:24:54;;;;;;;3.83;2.63;;;;;;;4.19;100.00;98060.19;5069150;28;20251;-73
2020/12/25 04:27:20;;;;;;;6.60;3.20;;;;;;;4.08;100.00;98069.22;5071659;28;20232;-74
2020/12/25 04:29:47;;;;;;;4.97;3.07;;;;;;;4.23;100.00;98072.91;5071299;28;20203;-74
2020/12/25 04:32:14;;;;;;;5.70;3.47;;;;;;;4.13;100.00;98072.22;5071214;28;20207;-73
2020/12/25 04:34:41;;;;;;;4.40;2.40;;;;;;;4.24;100.00;98073.72;5071647;28;20198;-73
2020/12/25 04:37:07;;;;;;;4.47;3.10;;;;;;;4.14;100.00;98079.16;5071247;28;20221;-74
2020/12/25 04:39:35;;;;;;;4.83;3.17;;;;;;;4.19;100.00;98087.44;5071200;28;20561;-73
2020/12/25 04:42:02;;;;;;;4.37;3.00;;;;;;;4.27;100.00;98089.28;5069668;28;20205;-74
2020/12/25 04:44:29;;;;;;;4.77;2.63;;;;;;;4.15;100.00;98086.09;5066024;28;20255;-73
2020/12/25 04:47:06;;;;;;;4.43;2.70;;;;;;;4.12;100.00;98101.44;5071386;28;20234;-74
2020/12/25 04:49:34;;;;;;;3.73;2.37;;;;;;;4.07;100.00;98107.16;5071399;28;20555;-73
2020/12/25 04:52:01;;;;;;;4.83;2.90;;;;;;;4.26;100.00;98093.72;5070966;28;20207;-73
2020/12/25 04:54:28;;;;;;;4.20;2.60;;;;;;;4.15;100.00;98099.28;5070461;28;20208;-74
2020/12/25 04:56:58;;;;;;;3.50;2.23;;;;;;;4.03;100.00;98103.22;5071258;28;20221;-73
2020/12/25 04:59:26;;;;;;;4.43;2.53;;;;;;;3.79;100.00;98108.34;5070594;28;20198;-73
2020/12/25 05:01:55;;;;;;;4.20;2.80;;;;;;;4.02;100.00;98101.53;5071209;28;20247;-73
2020/12/25 05:04:23;;;;;;;4.07;2.83;;;;;;;4.14;100.00;98108.19;5071538;28;20197;-73
2020/12/25 05:06:50;;;;;;;4.13;2.20;;;;;;;3.82;100.00;98100.09;5068970;28;20226;-73
2020/12/25 05:09:17;;;;;;;4.43;2.70;;;;;;;3.89;100.00;98103.78;5070672;28;20666;-73
2020/12/25 05:11:49;;;;;;;3.93;2.53;;;;;;;3.94;100.00;98112.06;5069008;28;20205;-73
2020/12/25 05:14:18;;;;;;;4.23;2.60;;;;;;;4.00;100.00;98115.88;5069351;28;20775;-73
2020/12/25 05:16:46;;;;;;;4.23;2.70;;;;;;;4.01;100.00;98123.63;5067601;28;20225;-73
2020/12/25 05:19:14;;;;;;;3.57;2.40;;;;;;;4.03;100.00;98120.84;5065819;28;20193;-74
2020/12/25 05:21:41;;;;;;;3.73;2.47;;;;;;;4.07;100.00;98130.13;5071079;28;20221;-74
2020/12/25 05:24:08;;;;;;;4.27;2.93;;;;;;;4.02;100.00;98127.94;5068481;28;20213;-74
2020/12/25 05:26:36;;;;;;;4.20;2.37;;;;;;;3.93;100.00;98128.06;5073555;28;20225;-74
2020/12/25 05:29:03;;;;;;;4.67;2.87;;;;;;;3.88;100.00;98132.97;5074508;28;20193;-74
2020/12/25 05:31:31;;;;;;;3.80;2.70;;;;;;;3.86;100.00;98132.31;5073829;28;20205;-74
2020/12/25 05:33:59;;;;;;;7.13;3.00;;;;;;;3.95;100.00;98141.91;5074273;28;20201;-73
2020/12/25 05:36:30;;;;;;;4.67;2.60;;;;;;;3.84;100.00;98140.38;5074106;28;20215;-73
2020/12/25 05:38:57;;;;;;;5.37;2.83;;;;;;;3.70;100.00;98140.94;5072162;28;20669;-72
2020/12/25 05:41:25;;;;;;;4.37;2.80;;;;;;;3.92;100.00;98145.69;5074012;28;20225;-73
2020/12/25 05:43:53;;;;;;;4.43;2.97;;;;;;;3.99;100.00;98144.09;5073955;28;20208;-75
2020/12/25 05:46:20;;;;;;;4.83;3.30;;;;;;;3.87;100.00;98152.44;5074311;28;20719;-73
2020/12/25 05:48:52;;;;;;;6.97;3.23;;;;;;;3.94;100.00;98156.09;5070826;28;20200;-75
2020/12/25 05:51:20;;;;;;;6.00;3.40;;;;;;;4.02;100.00;98158.81;5069622;28;20198;-73
2020/12/25 05:53:46;;;;;;;6.40;3.23;;;;;;;4.01;100.00;98159.78;5070346;28;20201;-75
2020/12/25 05:56:15;;;;;;;4.93;3.23;;;;;;;3.92;100.00;98158.88;5074024;28;20194;-74
2020/12/25 05:58:44;;;;;;;5.63;3.47;;;;;;;4.11;100.00;98156.03;5073801;28;20202;-75
2020/12/25 06:01:11;;;;;;;5.00;3.40;;;;;;;3.95;100.00;98160.38;5067358;28;20221;-74
2020/12/25 06:03:39;;;;;;;4.53;3.07;;;;;;;4.06;100.00;98168.88;5073200;28;20677;-74
2020/12/25 06:06:12;;;;;;;4.67;3.40;;;;;;;3.68;100.00;98166.66;5073295;28;20237;-74
2020/12/25 06:08:54;;;;;;;5.27;3.30;;;;;;;3.88;100.00;98173.41;5073492;28;20662;-74
2020/12/25 06:11:27;;;;;;;6.03;3.70;;;;;;;3.88;100.00;98172.56;5066504;28;20191;-74
2020/12/25 06:13:55;;;;;;;5.53;3.47;;;;;;;3.95;100.00;98165.66;5073579;28;20199;-74
2020/12/25 06:16:22;;;;;;;7.57;4.00;;;;;;;3.90;100.00;98176.72;5073236;28;20194;-74
2020/12/25 06:18:55;;;;;;;7.43;3.80;;;;;;;3.99;100.00;98180.22;5069976;28;20205;-74
2020/12/25 06:21:30;;;;;;;8.43;4.50;;;;;;;3.99;100.00;98181.06;5073183;28;20228;-74
2020/12/25 06:23:58;;;;;;;6.90;4.47;;;;;;;3.88;100.00;98183.97;5073232;28;20197;-75
2020/12/25 06:26:25;;;;;;;8.27;4.80;;;;;;;3.97;100.00;98183.00;5072775;28;20245;-75
2020/12/25 06:28:53;;;;;;;7.07;4.00;;;;;;;3.88;100.00;98181.31;5073032;28;20666;-73
2020/12/25 06:31:35;;;;;;;6.67;3.60;;;;;;;3.83;100.00;98178.31;5073013;28;20258;-74
2020/12/25 06:34:03;;;;;;;7.33;4.53;;;;;;;3.84;100.00;98187.06;5072981;28;20258;-74
2020/12/25 06:36:32;;;;;;;6.03;4.00;;;;;;;3.75;100.00;98186.19;5072606;28;20354;-74
2020/12/25 06:38:59;;;;;;;7.53;4.47;;;;;;;3.78;100.00;98193.78;5072988;28;20250;-74
2020/12/25 06:41:27;;;;;;;6.70;3.77;;;;;;;3.69;100.00;98186.78;5072940;28;20244;-74
2020/12/25 06:43:55;;;;;;;9.33;4.77;;;;;;;3.83;100.00;98202.09;5067644;28;20201;-73
2020/12/25 06:46:33;;;;;;;7.20;4.33;;;;;;;3.62;100.00;98200.75;5066154;28;20198;-77
2020/12/25 06:49:04;;;;;;;8.27;4.67;;;;;;;3.56;100.00;98196.09;5071495;28;20223;-74
2020/12/25 06:51:38;;;;;;;5.73;3.63;;;;;;;3.69;100.00;98207.06;5067796;28;20619;-74
2020/12/25 06:54:05;;;;;;;6.67;4.17;;;;;;;3.63;100.00;98208.53;5072122;28;20200;-75
2020/12/25 06:56:41;;;;;;;6.70;4.07;;;;;;;3.54;100.00;98205.94;5070593;28;20228;-74
2020/12/25 06:59:15;;;;;;;6.57;4.30;;;;;;;3.65;100.00;98213.66;5072279;28;20213;-74
2020/12/25 07:01:43;;;;;;;9.63;4.57;;;;;;;3.63;100.00;98215.59;5073293;28;20743;-74
2020/12/25 07:04:23;;;;;;;7.50;4.10;;;;;;;3.64;100.00;98220.72;5073859;28;20780;-73
2020/12/25 07:06:54;;;;;;;6.23;3.60;;;;;;;3.74;100.00;98226.75;5073149;28;20313;-74
2020/12/25 07:09:21;;;;;;;7.47;4.00;;;;;;;3.56;100.00;98231.19;5072714;28;20194;-74
2020/12/25 07:11:51;;;;;;;7.27;4.03;;;;;;;3.57;100.00;98234.69;5073935;28;20225;-75
2020/12/25 07:14:18;;;;;;;4.80;3.20;;;;;;;3.74;100.00;98236.47;5070997;28;20619;-75
2020/12/25 07:16:45;;;;;;;5.93;3.90;;;;;;;3.64;100.00;98239.19;5073019;28;20270;-75
2020/12/25 07:19:12;;;;;;;4.47;2.90;;;;;;;3.47;100.00;98242.69;5072613;28;20641;-75
2020/12/25 07:21:39;;;;;;;5.20;3.10;;;;;;;3.58;100.00;98242.44;5071874;28;20223;-74
2020/12/25 07:24:07;;;;;;;5.47;3.03;;;;;;;3.63;100.00;98252.53;5073020;28;20313;-74
2020/12/25 07:26:33;;;;;;;4.87;3.17;;;;;;;3.61;100.00;98257.97;5069183;28;20230;-72
2020/12/25 07:29:02;;;;;;;5.63;3.10;;;;;;;3.18;100.00;98262.31;5066979;28;20205;-72
2020/12/25 07:31:28;;;;;;;5.77;3.03;;;;;;;3.52;100.00;98268.59;5071478;28;20193;-74
2020/12/25 07:33:58;;;;;;;5.40;2.90;;;;;;;3.54;100.00;98267.47;5074227;28;20204;-76
2020/12/25 07:36:25;;;;;;;4.57;2.67;;;;;;;3.50;100.00;98274.03;5069421;28;20226;-76
2020/12/25 07:39:00;;;;;;;5.03;3.10;;;;;;;3.45;100.00;98270.19;5071957;28;20254;-74
2020/12/25 07:41:28;;;;;;;4.93;3.17;;;;;;;3.53;100.00;98270.25;5067894;28;20225;-75
2020/12/25 07:43:57;;;;;;;3.97;2.60;;;;;;;3.40;100.00;98270.63;5069181;28;20826;-74
2020/12/25 07:46:25;;;;;;;4.57;2.90;;;;;;;3.52;100.00;98279.16;5075795;28;20201;-75
2020/12/25 07:48:56;;;;;;;4.10;2.67;;;;;;;3.54;100.00;98290.38;5071974;28;20232;-76
2020/12/25 07:51:23;;;;;;;4.13;2.93;;;;;;;3.68;100.00;98281.94;5068206;28;20227;-74
2020/12/25 07:53:51;;;;;;;4.33;2.97;;;;;;;3.69;100.00;98287.06;5072053;28;20334;-76
2020/12/25 07:56:20;;;;;;;5.17;3.03;;;;;;;3.74;100.00;98291.88;5071392;28;20217;-74
2020/12/25 07:58:50;;;;;;;4.87;2.67;;;;;;;3.63;100.00;98290.31;5069261;28;20251;-73
2020/12/25 08:01:19;;;;;;;3.60;2.17;;;;;;;3.51;100.00;98296.78;5070608;28;20233;-73
2020/12/25 08:03:45;;;;;;;5.07;2.43;;;;;;;3.59;100.00;98306.59;5070981;28;20209;-72
2020/12/25 08:06:14;;;;;;;5.57;3.40;;;;;;;3.62;100.00;98304.50;5064570;28;20206;-73
2020/12/25 08:08:44;;;;;;;4.10;2.67;;;;;;;3.35;100.00;98309.00;5071147;28;20209;-74
2020/12/25 08:11:12;;;;;;;3.20;2.47;;;;;;;3.42;100.00;98313.53;5069295;28;20195;-76
2020/12/25 08:13:39;;;;;;;5.50;3.13;;;;;;;3.46;100.00;98311.41;5070533;28;20197;-81
2020/12/25 08:16:07;;;;;;;4.60;2.73;;;;;;;3.44;100.00;98316.84;5073100;28;20198;-77
2020/12/25 08:18:34;;;;;;;3.77;2.90;;;;;;;3.40;100.00;98312.03;5073517;28;20201;-75
2020/12/25 08:21:01;;;;;;;5.17;3.03;;;;;;;3.50;100.00;98318.06;5070282;28;20235;-74
2020/12/25 08:23:31;;;;;;;5.23;3.47;;;;;;;3.36;100.00;98318.56;5069813;28;20284;-74
2020/12/25 08:25:58;;;;;;;8.43;3.63;;;;;;;3.46;100.00;98325.41;5069070;28;20595;-74
2020/12/25 08:28:25;;;;;;;6.97;3.87;;;;;;;3.69;100.00;98326.66;5064874;28;20252;-74
2020/12/25 08:30:52;;;;;;;8.43;4.23;;;;;;;3.73;100.00;98329.81;5071755;28;20194;-73
2020/12/25 08:33:26;;;;;;;7.93;4.80;;;;;;;3.75;100.00;98325.22;5071362;28;20596;-80
2020/12/25 08:35:54;;;;;;;8.68;5.93;;;;;;;3.64;100.00;98331.56;5071930;28;21006;-74
2020/12/25 08:38:21;;;;;;;10.37;5.43;;;;;;;3.79;100.00;98330.06;5072892;28;20216;-75
2020/12/25 08:40:49;;;;;;;11.33;5.27;;;;;;;3.83;100.00;98320.03;5071273;28;20233;-75
2020/12/25 08:43:18;;;;;;;11.07;6.17;;;;;;;3.82;100.00;98324.47;5071122;28;20207;-73
2020/12/25 08:45:55;;;;;;;11.13;6.23;;;;;;;3.99;100.00;98328.91;5070214;28;20209;-72
2020/12/25 08:48:22;;;;;;;12.13;5.97;;;;;;;3.82;100.00;98328.94;5063847;28;20228;-73
2020/12/25 08:50:50;;;;;;;11.97;7.20;;;;;;;3.98;100.00;98329.91;5070875;28;20243;-73
2020/12/25 08:53:19;;;;;;;13.47;6.63;;;;;;;3.96;100.00;98321.28;5071374;28;20254;-75
2020/12/25 08:55:50;;;;;;;12.83;6.37;;;;;;;3.99;100.00;98336.84;5071506;28;20205;-73
2020/12/25 08:58:18;;;;;;;13.60;7.30;;;;;;;4.05;100.00;98338.03;5071520;28;20225;-78
2020/12/25 09:00:58;;;;;;;15.10;6.67;;;;;;;4.20;100.00;98344.44;5075633;28;20252;-76
2020/12/25 09:03:35;;;;;;;14.20;7.40;;;;;;;3.74;100.00;98347.31;5072857;28;20204;-74
2020/12/25 09:06:03;;;;;;;14.17;7.10;;;;;;;3.99;100.00;98344.75;5074013;28;20215;-76
2020/12/25 09:08:30;;;;;;;13.00;6.47;;;;;;;4.08;100.00;98350.94;5074717;28;20224;-75
2020/12/25 09:10:57;;;;;;;14.03;6.57;;;;;;;4.21;100.00;98352.19;5072753;28;20202;-74
2020/12/25 09:13:23;;;;;;;12.73;6.93;;;;;;;4.35;100.00;98358.75;5075300;28;20197;-76
2020/12/25 09:15:50;;;;;;;12.80;6.77;;;;;;;4.15;100.00;98368.66;5068740;28;20217;-79
2020/12/25 09:18:17;;;;;;;12.53;7.07;;;;;;;4.36;100.00;98363.88;5071889;28;20230;-75
2020/12/25 09:20:44;;;;;;;15.93;7.23;;;;;;;4.43;100.00;98372.03;5073497;28;20603;-74
2020/12/25 09:23:12;;;;;;;11.77;6.83;;;;;;;4.37;100.00;98368.19;5071086;28;20201;-74
2020/12/25 09:25:38;;;;;;;12.20;6.43;;;;;;;4.48;100.00;98364.47;5076412;28;20677;-73
2020/12/25 09:28:05;;;;;;;15.60;6.87;;;;;;;4.39;100.00;98368.88;5073250;28;20237;-74
2020/12/25 09:30:32;;;;;;;12.43;6.77;;;;;;;4.40;100.00;98380.25;5075209;28;20199;-74
2020/12/25 09:32:59;;;;;;;15.43;7.60;;;;;;;4.35;100.00;98383.34;5073827;28;20217;-74
2020/12/25 09:35:25;;;;;;;13.27;7.23;;;;;;;4.40;100.00;98388.19;5074476;28;20659;-72
2020/12/25 09:37:52;;;;;;;14.80;7.73;;;;;;;4.38;100.00;98390.16;5074477;28;20229;-77
2020/12/25 09:40:20;;;;;;;12.20;6.83;;;;;;;4.64;100.00;98397.13;5073349;28;20230;-75
2020/12/25 09:42:47;;;;;;;13.80;7.07;;;;;;;4.75;100.00;98398.69;5074450;28;20216;-77
2020/12/25 09:45:13;;;;;;;17.67;8.07;;;;;;;4.46;100.00;98403.41;5077086;28;20219;-80
2020/12/25 09:47:40;;;;;;;13.37;6.70;;;;;;;4.95;100.00;98406.25;5073608;28;20225;-77
2020/12/25 09:50:08;;;;;;;11.63;6.43;;;;;;;4.90;100.00;98408.53;5072381;28;20206;-72
2020/12/25 09:52:35;;;;;;;14.40;7.30;;;;;;;4.72;100.00;98404.28;5072450;28;20251;-83
2020/12/25 09:55:02;;;;;;;14.97;6.67;;;;;;;4.88;100.00;98407.84;5074905;28;20202;-79
2020/12/25 09:57:29;;;;;;;11.60;6.23;;;;;;;4.78;100.00;98409.75;5073549;28;20221;-79
2020/12/25 09:59:56;;;;;;;10.93;5.57;;;;;;;4.79;100.00;98410.59;5076639;28;20218;-81
2020/12/25 10:02:24;;;;;;;10.10;5.77;;;;;;;5.06;100.00;98407.78;5076884;28;20204;-80
2020/12/25 10:04:50;;;;;;;12.07;5.83;;;;;;;4.67;100.00;98417.16;5076750;28;20233;-79
2020/12/25 10:07:17;;;;;;;9.33;5.63;;;;;;;5.16;100.00;98398.78;5075061;28;20223;-77
2020/12/25 10:09:44;;;;;;;10.00;5.80;;;;;;;5.36;100.00;98396.72;5075210;28;20214;-77
2020/12/25 10:12:11;;;;;;;8.47;4.70;;;;;;;5.48;100.00;98401.56;5073365;28;20202;-76
2020/12/25 10:14:38;;;;;;;11.10;4.97;;;;;;;4.74;100.00;98405.81;5071929;28;20245;-80
2020/12/25 10:17:05;;;;;;;10.20;5.83;;;;;;;5.30;100.00;98400.00;5073915;28;20223;-74
2020/12/25 10:19:34;;;;;;;7.73;4.37;;;;;;;4.99;100.00;98404.13;5074840;28;20253;-78
2020/12/25 10:22:01;;;;;;;7.27;4.37;;;;;;;5.10;100.00;98407.34;5079035;28;20251;-78
2020/12/25 10:24:27;;;;;;;7.10;4.50;;;;;;;4.87;100.00;98406.19;5079349;28;20208;-77
2020/12/25 10:26:55;;;;;;;7.53;4.57;;;;;;;4.84;100.00;98405.69;5081498;28;20230;-81
2020/12/25 10:29:22;;;;;;;5.93;3.60;;;;;;;5.21;100.00;98403.56;5081173;28;20198;-79
2020/12/25 10:31:50;;;;;;;8.00;4.57;;;;;;;4.73;100.00;98401.47;5081052;28;20207;-83
2020/12/25 10:34:17;;;;;;;6.20;3.90;;;;;;;5.24;100.00;98400.63;5076044;28;20238;-78
2020/12/25 10:36:44;;;;;;;9.17;4.60;;;;;;;5.24;100.00;98401.44;5074180;28;20229;-78
2020/12/25 10:39:11;;;;;;;8.63;4.47;;;;;;;5.09;100.00;98403.03;5074556;28;20194;-77
2020/12/25 10:41:38;;;;;;;8.53;4.63;;;;;;;5.13;100.00;98399.06;5072933;28;20717;-77
2020/12/25 10:44:06;;;;;;;8.80;4.43;;;;;;;4.63;100.00;98403.38;5072605;28;20602;-78
2020/12/25 10:46:33;;;;;;;9.97;4.83;;;;;;;4.98;100.00;98408.56;5074154;28;20628;-78
2020/12/25 10:49:01;;;;;;;9.90;4.20;;;;;;;5.02;100.00;98395.91;5075504;28;20288;-79
2020/12/25 10:51:28;;;;;;;8.83;4.80;;;;;;;5.05;100.00;98406.97;5074529;28;20199;-71
2020/12/25 10:53:55;;;;;;;8.23;4.13;;;;;;;4.96;100.00;98401.78;5073449;28;20569;-76
2020/12/25 10:56:22;;;;;;;9.70;4.90;;;;;;;5.11;100.00;98394.94;5072275;28;20329;-81
2020/12/25 10:58:49;;;;;;;7.23;4.23;;;;;;;4.71;100.00;98395.53;5075754;28;20293;-81
2020/12/25 11:01:21;;;;;;;8.07;3.70;;;;;;;4.87;100.00;98400.09;5075655;28;20223;-83
2020/12/25 11:03:47;;;;;;;6.60;4.20;;;;;;;4.99;100.00;98415.53;5074342;28;20377;-86
2020/12/25 11:06:15;;;;;;;5.60;3.53;;;;;;;4.96;100.00;98402.63;5075167;28;20225;-81
2020/12/25 11:08:42;;;;;;;7.33;3.27;;;;;;;4.70;100.00;98406.25;5076043;28;20232;-80
2020/12/25 11:11:10;;;;;;;6.47;3.13;;;;;;;5.04;100.00;98410.63;5077020;28;20203;-83
2020/12/25 11:13:36;;;;;;;8.33;3.77;;;;;;;4.96;100.00;98415.00;5066830;28;20211;-84
2020/12/25 11:16:03;;;;;;;6.60;3.73;;;;;;;5.11;100.00;98408.16;5070481;28;20289;-78
2020/12/25 11:18:33;;;;;;;5.43;3.37;;;;;;;5.07;100.00;98406.84;5074945;28;20307;-80
2020/12/25 11:21:00;;;;;;;5.47;3.13;;;;;;;5.15;100.00;98406.84;5075134;28;20631;-79
2020/12/25 11:23:27;;;;;;;5.77;3.10;;;;;;;5.19;100.00;98400.28;5074439;28;20201;-77
2020/12/25 11:25:54;;;;;;;10.20;4.43;;;;;;;5.21;100.00;98404.41;5072014;28;20254;-77
2020/12/25 11:28:21;;;;;;;4.70;3.40;;;;;;;4.73;100.00;98398.81;5080920;28;20294;-76
2020/12/25 11:30:48;;;;;;;4.93;3.00;;;;;;;4.36;100.00;98424.66;5075814;28;20619;-78
2020/12/25 11:33:14;;;;;;;6.77;3.23;;;;;;;4.74;100.00;98416.38;5072094;28;20658;-76